Terminal Aerodrome Forecast
Issued by NWS

Home | Current Version | Previous Version | Text Only | Print | Product List | Glossary On
Versions: 1 2 3 4 5 6 7 8 9 10 11 12 13 14 15 16 17 18
000
FTUS42 KMHX 011057 AAD
TAFISO
TAF AMD
KISO 011057Z 0111/0206 00000KT 3SM BR SCT250
      TEMPO 0111/0113 1SM BR VV007
     FM011300 VRB02KT P6SM SCT250
     FM011800 24005KT P6SM FEW050
     FM020000 VRB02KT P6SM SCT250
      AMD LTD TO CLD VIS AND WIND=

USA.gov is the U.S. government's official web portal to all federal, state and local government web resources and services.